Nearby METAR Reports

 

KBED - Bedford, Massachusetts, USA
Distance from station: ENE 12mi, 20km
Updated: Sat, 06-Jun-2020 5:36am EDT
Mostly cloudy
Mostly cloudy
 Wind from SSW
Wind: SSW 9 mph , 15 km/h
Temperature: 72°F , 22°C
Dew Point: 66°F , 19°C
Humidity: 83%
Barometer: 29.75 inHg , 1007.5 hPa
Clouds: Mostly cloudy
Visibility: 10 miles , 16 km
Cloud details: Mostly cloudy 1800 ft
2020/06/06 09:36 KBED 060936Z AUTO 20008KT 10SM BKN018 22/19 A2975 RMK AO2 LTG DSNT SE T02170194 PNO
KFIT - Fitchburg, Massachusetts, USA
Distance from station: NW 15mi, 24km
Updated: Sat, 06-Jun-2020 4:52am EDT
Overcast
Overcast
 Wind from calm
Wind: Calm
Temperature: 72°F , 22°C
Dew Point: 64°F , 18°C
Humidity: 78%
Barometer: 29.76 inHg , 1007.8 hPa
Clouds: Overcast
Visibility: 10 miles , 16 km
Cloud details: Overcast 1600 ft
2020/06/06 08:52 KFIT 060852Z AUTO 00000KT 10SM OVC016 22/18 A2976 RMK AO2 SLP076 T02170183 56013
 
KORH - Worcester, Massachusetts, USA
Distance from station: WSW 20mi, 32km
Updated: Sat, 06-Jun-2020 5:20am EDT
Overcast
Overcast
 Wind from WSW
Wind: WSW 10 mph , 17 km/h
Temperature: 70°F , 21°C
Dew Point: 66°F , 19°C
Humidity: 88%
Barometer: 29.80 inHg , 1009.1 hPa
Clouds: Overcast
Visibility: 10 miles , 16 km
Cloud details: Overcast 900 ft
2020/06/06 09:20 KORH 060920Z AUTO 24009KT 10SM OVC009 21/19 A2980 RMK AO2 CIG 007V012 T02060189
KOWD - Norwood, Massachusetts, USA
Distance from station: SE 24mi, 39km
Updated: Sat, 06-Jun-2020 5:16am EDT
Overcast
Overcast
 Wind from S
Wind: S 6 mph , 9 km/h
Temperature: 70°F , 21°C
Dew Point: 66°F , 19°C
Humidity: 88%
Barometer: 29.77 inHg , 1008.1 hPa
Clouds: Overcast
Visibility: 10 miles , 16 km
Cloud details: Partly cloudy 800 ft
Overcast 1400 ft
2020/06/06 09:16 KOWD 060916Z AUTO 17005KT 10SM SCT008 OVC014 21/19 A2977 RMK AO2 LTG DSNT S T02110189
 
KMQE - East Milton, Massachusetts, USA
Distance from station: ESE 25mi, 40km
Updated: Sat, 06-Jun-2020 4:51am EDT

 Wind from SSW
Wind: SSW 14 mph , 22 km/h
Temperature: 66°F , 19°C
Dew Point: 66°F , 19°C
Humidity: 100%
Barometer: 29.78 inHg , 1008.5 hPa
2020/06/06 08:51 KMQE 060851Z AUTO 20012KT 19/19 A2978 RMK AO1 SLP092 T01890189 56012
KASH - Nashua/Boire Fld, New Hampshire, USA
Distance from station: N 26mi, 42km
Updated: Sat, 06-Jun-2020 5:19am EDT
Partly cloudy
Partly cloudy
 Wind from SE
Wind: SE 3 mph , 6 km/h
Temperature: 68°F , 20°C
Dew Point: 68°F , 20°C
Humidity: 100%
Barometer: 29.75 inHg , 1007.5 hPa
Clouds: Partly cloudy
Visibility: 10 miles , 16 km
Cloud details: Partly cloudy 1800 ft
2020/06/06 09:19 KASH 060919Z AUTO 13003KT 10SM SCT018 20/20 A2975 RMK AO2
 
KBOS - Boston, Massachusetts, USA
Distance from station: E 26mi, 42km
Updated: Sat, 06-Jun-2020 5:04am EDT
Overcast
Overcast
 Wind from SSW
Wind: SSW 13 mph , 20 km/h
Temperature: 68°F , 20°C
Dew Point: 66°F , 19°C
Humidity: 94%
Barometer: 29.77 inHg , 1008.1 hPa
Clouds: Overcast
Visibility: 10 miles , 16 km
Cloud details: Overcast 900 ft
2020/06/06 09:04 KBOS 060904Z 20011KT 10SM OVC009 20/19 A2977 RMK AO2 LTG DSNT S T02000189
KLWM - Lawrence, Massachusetts, USA
Distance from station: NE 29mi, 47km
Updated: Sat, 06-Jun-2020 5:05am EDT
Partly cloudy
Partly cloudy
 Wind from SSW
Wind: SSW 6 mph , 9 km/h
Temperature: 72°F , 22°C
Dew Point: 66°F , 19°C
Humidity: 83%
Barometer: 29.76 inHg , 1007.8 hPa
Clouds: Partly cloudy
Visibility: 10 miles , 16 km
Cloud details: Partly cloudy 1900 ft
2020/06/06 09:05 KLWM 060905Z AUTO 21005KT 10SM SCT019 22/19 A2976 RMK AO2 T02170194
 
KBVY - Beverly, Massachusetts, USA
Distance from station: ENE 33mi, 54km
Updated: Sat, 06-Jun-2020 5:37am EDT
Mostly cloudy
Mostly cloudy
 Wind from SSW
Wind: SSW 9 mph , 15 km/h
Temperature: 72°F , 22°C
Dew Point: 66°F , 19°C
Humidity: 83%
Barometer: 29.75 inHg , 1007.5 hPa
Clouds: Mostly cloudy
Visibility: 10 miles , 16 km
Cloud details: Mostly cloudy 1200 ft
Mostly cloudy 11000 ft
2020/06/06 09:37 KBVY 060937Z AUTO 21008KT 10SM BKN012 BKN110 22/19 A2975 RMK AO2 T02170194
KSFZ - Pawtucket, Rhode Island, USA
Distance from station: S 34mi, 54km
Updated: Sat, 06-Jun-2020 4:56am EDT
Light rain, Overcast
Light rain, Overcast
 Wind from varies
Wind: varies 6 mph , 9 km/h
Temperature: 68°F , 20°C
Dew Point: 68°F , 20°C
Humidity: 100%
Barometer: 29.80 inHg , 1009.1 hPa
Summary: Light rain
Clouds: Overcast
Visibility: 10 miles , 16 km
Cloud details: Overcast 300 ft
2020/06/06 08:56 KSFZ 060856Z AUTO VRB05KT 10SM -RA OVC003 20/20 A2980 RMK AO2 SLP036 P0009 60018 T02000200 56013
 
KAFN - Jaffrey, New Hampshire, USA
Distance from station: NW 36mi, 59km
Updated: Sat, 06-Jun-2020 4:52am EDT
Overcast
Overcast
 Wind from SSW
Wind: SSW 6 mph , 9 km/h
Temperature: 70°F , 21°C
Dew Point: 64°F , 18°C
Humidity: 83%
Barometer: 29.79 inHg , 1008.8 hPa
Clouds: Overcast
Visibility: 10 miles , 16 km
Cloud details: Overcast 700 ft
2020/06/06 08:52 KAFN 060852Z AUTO 20005KT 10SM OVC007 21/18 A2979 RMK AO2 SLP084 T02060183 56013
KMHT - Manchester, New Hampshire, USA
Distance from station: N 37mi, 59km
Updated: Sat, 06-Jun-2020 4:53am EDT
Mostly cloudy
Mostly cloudy
 Wind from S
Wind: S 6 mph , 9 km/h
Temperature: 72°F , 22°C
Dew Point: 66°F , 19°C
Humidity: 83%
Barometer: 29.73 inHg , 1006.8 hPa
Clouds: Mostly cloudy
Visibility: 10 miles , 16 km
Cloud details: Partly cloudy 11000 ft
Mostly cloudy 25000 ft
2020/06/06 08:53 KMHT 060853Z 18005KT 10SM SCT110 BKN250 22/19 A2973 RMK AO2 SLP076 T02170194 56012
 
KORE - Orange, Massachusetts, USA
Distance from station: WNW 40mi, 65km
Updated: Sat, 06-Jun-2020 5:00am EDT
Mostly cloudy
Mostly cloudy
 Wind from S
Wind: S 3 mph , 6 km/h
Temperature: 70°F , 21°C
Dew Point: 66°F , 19°C
Humidity: 88%
Barometer: 29.78 inHg , 1008.5 hPa
Clouds: Mostly cloudy
Visibility: 10 miles , 16 km
Cloud details: Mostly cloudy 1300 ft
2020/06/06 09:00 KORE 060900Z AUTO 17003KT 10SM BKN013 21/19 A2978 RMK AO2 T02060194
KTAN - Taunton, Massachusetts, USA
Distance from station: SE 45mi, 72km
Updated: Sat, 06-Jun-2020 5:03am EDT
Light rain, Mostly cloudy
Light rain, Mostly cloudy
 Wind from SSW
Wind: SSW 6 mph , 9 km/h
Temperature: 68°F , 20°C
Dew Point: 64°F , 18°C
Humidity: 88%
Barometer: 29.79 inHg , 1008.8 hPa
Summary: Light rain
Clouds: Mostly cloudy
Visibility: 10 miles , 16 km
Cloud details: Mostly cloudy 700 ft
Mostly cloudy 7500 ft
2020/06/06 09:03 KTAN 060903Z AUTO 20005KT 10SM -RA BKN007 BKN075 20/18 A2979 RMK AO2 CIG 005V010 P0000 T02000183 $
 
KPVD - Providence/Green, Rhode Island, USA
Distance from station: S 48mi, 77km
Updated: Sat, 06-Jun-2020 5:15am EDT
Overcast
Overcast
 Wind from SSE
Wind: SSE 8 mph , 13 km/h
Temperature: 66°F , 19°C
Dew Point: 66°F , 19°C
Humidity: 100%
Barometer: 29.80 inHg , 1009.1 hPa
Clouds: Overcast
Visibility: 10 miles , 16 km
Cloud details: Overcast 800 ft
2020/06/06 09:15 KPVD 060915Z 16007KT 10SM OVC008 19/19 A2980 RMK AO2 LTG DSNT NE RAE07 P0000 T01940189 $
KGHG - Marshfield, Massachusetts, USA
Distance from station: ESE 49mi, 79km
Updated: Sat, 06-Jun-2020 5:35am EDT
Mist, Mostly cloudy
Mist, Mostly cloudy
 Wind from SW
Wind: SW 10 mph , 17 km/h, Gust: 17 mph , 28 km/h
Temperature: 70°F , 21°C
Dew Point: 70°F , 21°C
Humidity: 100%
Barometer: 29.79 inHg , 1008.8 hPa
Summary: Mist
Clouds: Mostly cloudy
Visibility: 5 miles , 8 km
Cloud details: Mostly cloudy 800 ft
Mostly cloudy 1100 ft
Mostly cloudy 4200 ft
2020/06/06 09:35 KGHG 060935Z AUTO 22009G15KT 5SM BR BKN008 BKN011 BKN042 21/21 A2979 RMK AO2
 
KEEN - Keene/Dillant, New Hampshire, USA
Distance from station: NW 50mi, 81km
Updated: Sat, 06-Jun-2020 4:56am EDT
Overcast
Overcast
 Wind from S
Wind: S 5 mph , 7 km/h
Temperature: 70°F , 21°C
Dew Point: 66°F , 19°C
Humidity: 88%
Barometer: 29.76 inHg , 1007.8 hPa
Clouds: Overcast
Visibility: 10 miles , 16 km
Cloud details: Overcast 1100 ft
2020/06/06 08:56 KEEN 060856Z AUTO 19004KT 10SM OVC011 21/19 A2976 RMK AO2 SLP078 T02060194 58011 $